createdAt,value
2023-01-13T00:15:53.302Z,3
2023-01-13T00:44:29.513Z,3
2023-01-13T01:13:24.932Z,3
2023-01-13T01:42:08.550Z,3
2023-01-13T02:10:53.072Z,3
2023-01-13T02:39:41.140Z,1
2023-01-13T03:08:36.208Z,3
2023-01-13T03:37:27.053Z,2
2023-01-13T04:06:18.537Z,1
2023-01-13T04:34:59.678Z,1
2023-01-13T05:03:56.974Z,1
2023-01-13T05:32:51.045Z,1
2023-01-13T06:01:44.872Z,1
2023-01-13T06:30:33.083Z,1
2023-01-13T06:59:02.639Z,1
2023-01-13T07:27:34.473Z,3
2023-01-13T07:56:12.728Z,3
2023-01-13T08:24:49.954Z,3
2023-01-13T08:53:21.527Z,1
2023-01-13T09:21:55.853Z,4
2023-01-13T09:50:27.968Z,4
2023-01-13T10:19:03.063Z,1
2023-01-13T10:47:22.870Z,4
2023-01-13T11:15:39.626Z,4
2023-01-13T11:44:11.612Z,6
2023-01-13T12:12:49.548Z,6
2023-01-13T12:41:21.911Z,4
2023-01-13T13:09:57.534Z,6
2023-01-13T13:38:34.413Z,4
2023-01-13T14:07:10.437Z,4
2023-01-13T14:35:34.832Z,5
2023-01-13T15:04:16.416Z,4
2023-01-13T15:32:37.364Z,7
2023-01-13T16:01:05.022Z,3
2023-01-13T16:29:28.211Z,3
2023-01-13T16:57:43.060Z,3
2023-01-13T17:26:14.998Z,4
2023-01-13T17:54:52.245Z,4
2023-01-13T18:23:23.768Z,6
2023-01-13T18:51:58.226Z,4
2023-01-13T19:20:27.764Z,7
2023-01-13T19:49:08.659Z,6
2023-01-13T20:17:42.010Z,7
2023-01-13T20:46:15.307Z,6
2023-01-13T21:14:47.667Z,7
2023-01-13T21:43:14.412Z,6
2023-01-13T22:11:53.049Z,5
2023-01-13T22:40:17.962Z,5
2023-01-13T23:08:45.735Z,7
2023-01-13T23:37:06.489Z,10
